Time;durP1;ratioP1;P1;durP2;ratioP2;P2;SDS_P1;SDS_P2;PMS_P1;PMS_P2;Temp;Humidity;BMP_temperature;BMP_pressure;BME280_temperature;BME280_humidity;BME280_pressure;Samples;Min_cycle;Max_cycle;Signal;HPM_P1;HPM_P2
2022/06/07 00:00:17;;;;;;;2.90;2.60;;;24.60;97.40;;;;;;6243895;27;85372;-64
2022/06/07 00:03:21;;;;;;;2.75;2.35;;;24.60;97.30;;;;;;6242476;27;83343;-65
2022/06/07 00:06:23;;;;;;;2.90;2.35;;;24.60;97.30;;;;;;6257716;27;83102;-64
2022/06/07 00:09:25;;;;;;;2.83;2.47;;;24.60;97.30;;;;;;6245715;27;84090;-64
2022/06/07 00:12:28;;;;;;;3.03;2.25;;;24.60;97.40;;;;;;6259092;27;84342;-65
2022/06/07 00:15:30;;;;;;;2.33;2.00;;;24.60;97.40;;;;;;6239482;27;84080;-64
2022/06/07 00:18:33;;;;;;;2.58;2.38;;;24.60;97.40;;;;;;6240990;27;83967;-65
2022/06/07 00:21:35;;;;;;;2.47;2.28;;;24.60;97.30;;;;;;6246225;27;83547;-64
2022/06/07 00:24:38;;;;;;;3.25;2.33;;;24.60;97.20;;;;;;6246119;27;84006;-65
2022/06/07 00:27:40;;;;;;;2.40;2.20;;;24.60;97.00;;;;;;6254297;27;84083;-64
2022/06/07 00:30:42;;;;;;;2.38;2.17;;;24.60;97.00;;;;;;6254186;27;84941;-65
2022/06/07 00:33:45;;;;;;;4.00;2.63;;;24.60;97.00;;;;;;6259824;27;84788;-67
2022/06/07 00:36:47;;;;;;;4.63;3.13;;;24.60;97.00;;;;;;6236139;27;84046;-66
2022/06/07 00:39:49;;;;;;;2.85;2.53;;;24.50;97.00;;;;;;6263227;27;84003;-67
2022/06/07 00:42:51;;;;;;;3.20;2.60;;;24.60;97.10;;;;;;6247370;27;84340;-67
2022/06/07 00:45:53;;;;;;;3.05;2.50;;;24.50;97.00;;;;;;6249875;27;84073;-67
2022/06/07 00:48:57;;;;;;;3.10;2.47;;;24.50;97.00;;;;;;6249044;27;84025;-66
2022/06/07 00:51:59;;;;;;;2.83;2.60;;;24.50;97.00;;;;;;6249712;27;83308;-67
2022/06/07 00:55:02;;;;;;;2.70;2.50;;;24.50;96.90;;;;;;6258366;27;84174;-66
2022/06/07 00:58:04;;;;;;;3.85;2.60;;;24.50;97.00;;;;;;6255647;27;84004;-66
2022/06/07 01:01:06;;;;;;;4.65;2.80;;;24.50;97.00;;;;;;6239087;27;84973;-67
2022/06/07 01:04:10;;;;;;;3.45;2.60;;;24.50;96.90;;;;;;6251358;27;82874;-64
2022/06/07 01:10:47;;;;;;;3.10;2.75;;;24.50;96.70;;;;;;6244496;27;82244;-64
2022/06/07 01:13:49;;;;;;;3.22;2.35;;;24.50;96.70;;;;;;6260712;27;83902;-64
2022/06/07 01:16:51;;;;;;;3.42;2.60;;;24.50;96.80;;;;;;6248829;27;84015;-67
2022/06/07 01:19:55;;;;;;;3.80;2.97;;;24.50;96.70;;;;;;6241539;27;82811;-67
2022/06/07 01:22:58;;;;;;;3.30;2.80;;;24.40;96.80;;;;;;6242856;27;82521;-66
2022/06/07 01:26:01;;;;;;;3.20;2.78;;;24.40;96.90;;;;;;6246275;27;83945;-67
2022/06/07 01:29:04;;;;;;;3.92;3.17;;;24.40;97.00;;;;;;6249463;27;85058;-66
2022/06/07 01:32:07;;;;;;;3.17;2.80;;;24.40;97.00;;;;;;6250962;27;86557;-67
2022/06/07 01:35:10;;;;;;;3.60;2.97;;;24.40;97.00;;;;;;6249548;27;83987;-66
2022/06/07 01:38:13;;;;;;;3.20;2.90;;;24.50;97.00;;;;;;6249516;27;84054;-67
2022/06/07 01:44:39;;;;;;;4.70;3.03;;;24.40;97.10;;;;;;6255844;27;82251;-67
2022/06/07 01:47:41;;;;;;;4.00;3.20;;;24.50;97.30;;;;;;6245232;27;84403;-66
2022/06/07 01:50:43;;;;;;;2.90;2.60;;;24.40;97.40;;;;;;6266627;27;84034;-67
2022/06/07 01:53:46;;;;;;;3.22;2.80;;;24.40;97.40;;;;;;6242713;27;82834;-67
2022/06/07 01:56:49;;;;;;;3.25;2.65;;;24.40;97.50;;;;;;6249321;27;83999;-66
2022/06/07 01:59:51;;;;;;;3.92;3.17;;;24.40;97.50;;;;;;6248776;27;83934;-67
2022/06/07 02:02:53;;;;;;;3.92;2.83;;;24.40;97.50;;;;;;6247597;27;84932;-67
2022/06/07 02:05:56;;;;;;;3.75;2.72;;;24.40;97.40;;;;;;6248099;27;84037;-66
2022/06/07 02:09:00;;;;;;;3.63;2.95;;;24.40;97.40;;;;;;6259201;27;84340;-66
2022/06/07 02:12:02;;;;;;;3.50;2.70;;;24.40;97.40;;;;;;6250878;27;84015;-67
2022/06/07 02:15:05;;;;;;;3.35;2.80;;;24.40;97.40;;;;;;6256998;27;83931;-66
2022/06/07 02:18:08;;;;;;;3.10;2.50;;;24.40;97.40;;;;;;6246899;27;83972;-67
2022/06/07 02:21:11;;;;;;;3.00;2.80;;;24.40;97.30;;;;;;6260308;27;84092;-67
2022/06/07 02:24:14;;;;;;;4.55;3.35;;;24.40;97.20;;;;;;6245049;27;83666;-66
2022/06/07 02:27:19;;;;;;;3.40;3.08;;;24.40;97.20;;;;;;6252597;27;84503;-67
2022/06/07 02:30:22;;;;;;;3.45;2.70;;;24.40;97.30;;;;;;6259799;28;82831;-66
2022/06/07 02:33:25;;;;;;;2.92;2.63;;;24.40;97.10;;;;;;6260535;27;84955;-67
2022/06/07 02:36:30;;;;;;;3.83;2.70;;;24.40;96.80;;;;;;6265517;27;84428;-66
2022/06/07 02:39:36;;;;;;;3.10;2.78;;;24.30;96.50;;;;;;6255458;27;84008;-67
2022/06/07 02:42:38;;;;;;;2.90;2.60;;;24.40;96.40;;;;;;6249895;27;84055;-67
2022/06/07 02:45:40;;;;;;;3.58;2.60;;;24.30;96.20;;;;;;6254454;27;84045;-67
2022/06/07 02:48:42;;;;;;;3.60;2.78;;;24.30;96.20;;;;;;6235414;27;84010;-67
2022/06/07 02:51:44;;;;;;;3.60;2.85;;;24.30;96.20;;;;;;6249497;27;84382;-66
2022/06/07 02:54:48;;;;;;;3.05;2.78;;;24.30;96.10;;;;;;6246271;27;83230;-66
2022/06/07 02:57:50;;;;;;;4.00;3.10;;;24.30;95.90;;;;;;6245852;27;84323;-67
2022/06/07 03:00:52;;;;;;;3.00;2.60;;;24.30;96.00;;;;;;6259192;27;83941;-67
2022/06/07 03:03:54;;;;;;;3.38;2.60;;;24.30;96.00;;;;;;6255439;27;85304;-67
2022/06/07 03:06:56;;;;;;;3.00;2.70;;;24.30;96.00;;;;;;6252251;27;84013;-67
2022/06/07 03:09:59;;;;;;;2.45;2.25;;;24.30;95.90;;;;;;6255270;27;84115;-67
2022/06/07 03:13:01;;;;;;;4.63;2.35;;;24.30;95.90;;;;;;6247686;27;84297;-67
2022/06/07 03:16:04;;;;;;;3.17;2.38;;;24.30;95.90;;;;;;6255113;27;84309;-66
2022/06/07 03:19:06;;;;;;;2.28;2.08;;;24.30;95.90;;;;;;6259301;27;82871;-66
2022/06/07 03:22:09;;;;;;;3.05;2.50;;;24.30;95.90;;;;;;6249578;27;84596;-67
2022/06/07 03:25:12;;;;;;;3.13;2.67;;;24.30;95.80;;;;;;6253864;27;83430;-66
2022/06/07 03:28:14;;;;;;;2.58;2.38;;;24.30;95.90;;;;;;6243369;27;84358;-66
2022/06/07 03:31:18;;;;;;;2.97;2.50;;;24.30;95.90;;;;;;6245896;27;84144;-67
2022/06/07 03:34:20;;;;;;;3.28;2.50;;;24.30;96.00;;;;;;6247454;27;84957;-66
2022/06/07 03:37:22;;;;;;;2.45;2.25;;;24.30;96.00;;;;;;6242264;27;84084;-66
2022/06/07 03:40:44;;;;;;;2.58;2.38;;;24.30;96.00;;;;;;6255891;27;84089;-67
2022/06/07 03:43:46;;;;;;;3.72;2.60;;;24.30;96.00;;;;;;6258634;27;84143;-66
2022/06/07 03:46:49;;;;;;;2.53;2.33;;;24.30;96.10;;;;;;6256658;27;84098;-67
2022/06/07 03:49:51;;;;;;;3.85;2.28;;;24.30;96.10;;;;;;6259493;27;83957;-67
2022/06/07 03:52:53;;;;;;;2.60;2.40;;;24.30;96.10;;;;;;6244881;27;83925;-67
2022/06/07 03:55:57;;;;;;;2.40;2.20;;;24.30;96.10;;;;;;6257674;27;83502;-67
2022/06/07 03:58:59;;;;;;;2.50;2.30;;;24.30;96.10;;;;;;6244867;27;84079;-67
2022/06/07 04:02:01;;;;;;;3.35;2.40;;;24.30;96.20;;;;;;6243827;27;84056;-66
2022/06/07 04:05:03;;;;;;;3.80;2.30;;;24.30;96.30;;;;;;6257296;27;84946;-67
2022/06/07 04:08:12;;;;;;;2.50;2.30;;;24.30;96.40;;;;;;6246903;27;84024;-67
2022/06/07 04:11:18;;;;;;;2.33;2.00;;;24.30;96.40;;;;;;6242185;27;84118;-67
2022/06/07 04:14:20;;;;;;;3.00;2.53;;;24.30;96.60;;;;;;6235709;27;83931;-67
2022/06/07 04:17:22;;;;;;;2.55;2.33;;;24.30;96.60;;;;;;6246102;27;84105;-66
2022/06/07 04:20:24;;;;;;;3.00;2.28;;;24.30;96.80;;;;;;6234347;27;84416;-67
2022/06/07 04:23:26;;;;;;;2.60;2.40;;;24.30;97.00;;;;;;6243704;27;84156;-67
2022/06/07 04:26:29;;;;;;;2.45;2.25;;;24.30;97.00;;;;;;6246857;27;82218;-67
2022/06/07 04:29:31;;;;;;;2.50;2.30;;;24.30;97.00;;;;;;6239268;27;83704;-66
2022/06/07 04:32:33;;;;;;;3.10;2.60;;;24.30;97.10;;;;;;6240911;27;84281;-66
2022/06/07 04:35:35;;;;;;;3.08;2.25;;;24.30;97.30;;;;;;6233550;27;83918;-66
2022/06/07 04:38:37;;;;;;;2.63;2.42;;;24.30;97.70;;;;;;6266486;27;83940;-67
2022/06/07 04:41:41;;;;;;;2.85;2.40;;;24.20;98.00;;;;;;6245104;27;83199;-67
2022/06/07 04:44:43;;;;;;;3.08;2.60;;;24.20;98.00;;;;;;6251780;27;84010;-67
2022/06/07 04:47:46;;;;;;;3.35;2.78;;;24.20;98.10;;;;;;6249688;27;83093;-67
2022/06/07 04:50:48;;;;;;;2.40;2.20;;;24.20;98.00;;;;;;6245373;27;84219;-66
2022/06/07 04:53:52;;;;;;;3.13;2.70;;;24.20;97.90;;;;;;6249531;27;83135;-67
2022/06/07 04:56:56;;;;;;;2.65;2.13;;;24.20;98.30;;;;;;6250862;27;83328;-67
2022/06/07 04:59:58;;;;;;;2.50;2.28;;;24.20;98.40;;;;;;6260223;27;84063;-67
2022/06/07 05:03:00;;;;;;;2.97;2.42;;;24.30;98.40;;;;;;6243910;27;83975;-67
2022/06/07 05:06:02;;;;;;;3.03;2.75;;;24.20;98.60;;;;;;6251761;27;85046;-66
2022/06/07 05:09:06;;;;;;;2.72;2.33;;;24.20;98.90;;;;;;6249480;27;84031;-66
2022/06/07 05:12:10;;;;;;;2.70;2.30;;;24.20;99.00;;;;;;6246708;28;82976;-67
2022/06/07 05:15:12;;;;;;;3.67;2.50;;;24.20;99.10;;;;;;6248076;27;83961;-67
2022/06/07 05:18:14;;;;;;;2.50;2.30;;;24.20;99.10;;;;;;6247425;27;84050;-67
2022/06/07 05:21:17;;;;;;;4.03;2.10;;;24.20;99.20;;;;;;6250973;27;84389;-67
2022/06/07 05:24:19;;;;;;;2.50;2.10;;;24.20;99.20;;;;;;6260381;27;84076;-67
2022/06/07 05:27:24;;;;;;;2.50;2.30;;;24.20;99.30;;;;;;6243420;27;83295;-67
2022/06/07 05:30:27;;;;;;;3.42;2.45;;;24.20;99.40;;;;;;6239200;27;82869;-67
2022/06/07 05:33:28;;;;;;;2.65;2.45;;;24.20;99.50;;;;;;6261550;27;84340;-67
2022/06/07 05:36:31;;;;;;;2.50;2.30;;;24.20;99.40;;;;;;6259306;27;84998;-67
2022/06/07 05:39:32;;;;;;;2.40;2.20;;;24.20;99.50;;;;;;6244380;27;84007;-67
2022/06/07 05:42:36;;;;;;;2.60;2.35;;;24.20;99.70;;;;;;6238600;27;84084;-67
2022/06/07 05:45:39;;;;;;;2.47;2.28;;;24.20;99.80;;;;;;6238426;27;84053;-67
2022/06/07 05:48:41;;;;;;;2.70;2.50;;;24.20;99.90;;;;;;6242123;27;84210;-67
2022/06/07 05:51:43;;;;;;;3.33;2.60;;;24.20;99.90;;;;;;6259091;27;83945;-67
2022/06/07 05:54:45;;;;;;;2.85;2.50;;;24.20;99.90;;;;;;6245170;27;84290;-67
2022/06/07 05:57:51;;;;;;;4.40;2.60;;;24.20;99.90;;;;;;6248201;27;82183;-67
2022/06/07 06:00:53;;;;;;;3.05;2.70;;;24.10;99.90;;;;;;6252894;28;84112;-67
2022/06/07 06:03:56;;;;;;;2.90;2.70;;;24.20;99.90;;;;;;6246593;27;84417;-67
2022/06/07 06:06:59;;;;;;;3.10;2.90;;;24.20;99.90;;;;;;6251644;27;84973;-68
2022/06/07 06:13:30;;;;;;;3.15;2.95;;;24.10;99.90;;;;;;6224656;27;83857;-67
2022/06/07 06:16:32;;;;;;;3.20;2.90;;;24.20;99.90;;;;;;6248091;27;82821;-66
2022/06/07 06:19:35;;;;;;;3.28;2.97;;;24.20;99.90;;;;;;6236344;27;84010;-66
2022/06/07 06:22:38;;;;;;;2.90;2.70;;;24.10;99.90;;;;;;6252412;27;84021;-66
2022/06/07 06:25:42;;;;;;;3.63;3.03;;;24.10;99.90;;;;;;6257431;27;84335;-67
2022/06/07 06:28:46;;;;;;;3.30;2.80;;;24.10;99.90;;;;;;6255373;27;83310;-64
2022/06/07 06:31:50;;;;;;;4.97;3.60;;;24.20;99.90;;;;;;6238936;27;83982;-66
2022/06/07 06:34:52;;;;;;;4.03;3.30;;;24.10;99.90;;;;;;6245948;28;84147;-67
2022/06/07 06:37:54;;;;;;;3.33;3.03;;;24.10;99.90;;;;;;6253638;28;84998;-67
2022/06/07 06:40:56;;;;;;;4.13;3.28;;;24.20;99.90;;;;;;6245604;27;84057;-67
2022/06/07 06:44:01;;;;;;;3.00;2.80;;;24.10;99.90;;;;;;6245098;27;84403;-67
2022/06/07 06:47:04;;;;;;;3.00;2.70;;;24.20;99.90;;;;;;6244782;27;83674;-67
2022/06/07 06:50:07;;;;;;;3.10;2.72;;;24.20;99.90;;;;;;6240675;28;83985;-67
2022/06/07 06:53:10;;;;;;;3.22;2.60;;;24.20;99.90;;;;;;6244969;27;84087;-67
2022/06/07 06:56:13;;;;;;;2.60;2.40;;;24.20;99.90;;;;;;6244301;28;82933;-67
2022/06/07 06:59:17;;;;;;;4.07;2.67;;;24.10;99.90;;;;;;6239328;28;83303;-67
2022/06/07 07:02:20;;;;;;;2.55;2.33;;;24.10;99.90;;;;;;6251783;27;84400;-67
2022/06/07 07:05:22;;;;;;;3.38;2.58;;;24.10;99.90;;;;;;6248815;27;84192;-66
2022/06/07 07:08:25;;;;;;;2.40;2.20;;;24.10;99.90;;;;;;6246317;27;84963;-66
2022/06/07 07:11:29;;;;;;;3.47;2.38;;;24.10;99.90;;;;;;6235337;27;84312;-66
2022/06/07 07:14:33;;;;;;;2.65;2.45;;;24.10;99.90;;;;;;6256857;27;83125;-66
2022/06/07 07:17:35;;;;;;;2.20;2.00;;;24.10;99.90;;;;;;6254906;27;83910;-66
2022/06/07 07:20:40;;;;;;;2.20;2.10;;;24.10;99.90;;;;;;6246171;27;83966;-67
2022/06/07 07:23:42;;;;;;;2.50;2.08;;;24.20;99.90;;;;;;6248042;27;84128;-67
2022/06/07 07:26:45;;;;;;;2.10;1.90;;;24.10;99.90;;;;;;6241452;27;84150;-67
2022/06/07 07:29:49;;;;;;;2.25;2.05;;;24.20;99.90;;;;;;6255536;27;83354;-67
2022/06/07 07:32:51;;;;;;;1.95;1.77;;;24.20;99.90;;;;;;6244895;27;83014;-67
2022/06/07 07:35:53;;;;;;;2.00;1.80;;;24.10;99.90;;;;;;6245106;27;84045;-66
2022/06/07 07:38:56;;;;;;;1.83;1.70;;;24.10;99.90;;;;;;6233187;27;85165;-67
2022/06/07 07:41:58;;;;;;;2.22;1.70;;;24.20;99.90;;;;;;6243863;27;82913;-66
2022/06/07 07:45:01;;;;;;;1.92;1.80;;;24.20;99.90;;;;;;6244921;27;84089;-66
2022/06/07 07:48:04;;;;;;;1.60;1.50;;;24.10;99.90;;;;;;6245114;27;84091;-67
2022/06/07 07:51:07;;;;;;;2.03;1.60;;;24.10;99.90;;;;;;6244841;27;84182;-67
2022/06/07 07:54:12;;;;;;;1.52;1.42;;;24.10;99.90;;;;;;6246735;27;84088;-66
2022/06/07 07:57:14;;;;;;;1.85;1.52;;;24.10;99.90;;;;;;6244288;27;82892;-67
2022/06/07 08:00:18;;;;;;;1.73;1.58;;;24.20;99.90;;;;;;6252698;27;82154;-66
2022/06/07 08:03:21;;;;;;;1.48;1.38;;;24.20;99.90;;;;;;6252509;27;83947;-67
2022/06/07 08:06:24;;;;;;;1.58;1.30;;;24.10;99.90;;;;;;6253056;27;84008;-66
2022/06/07 08:09:26;;;;;;;1.40;1.30;;;24.10;99.90;;;;;;6242942;27;85105;-66
2022/06/07 08:12:29;;;;;;;1.30;1.20;;;24.20;99.90;;;;;;6232485;27;84292;-66
2022/06/07 08:15:33;;;;;;;1.15;1.05;;;24.20;99.90;;;;;;6250572;27;83915;-66
2022/06/07 08:18:36;;;;;;;1.77;1.30;;;24.10;99.90;;;;;;6248371;27;83850;-66
2022/06/07 08:21:39;;;;;;;1.40;1.30;;;24.10;99.90;;;;;;6243033;27;84357;-67
2022/06/07 08:24:41;;;;;;;2.17;1.20;;;24.10;99.90;;;;;;6240739;27;82926;-66
2022/06/07 08:27:44;;;;;;;1.48;1.20;;;24.10;99.90;;;;;;6246922;27;84038;-66
2022/06/07 08:30:50;;;;;;;1.17;1.08;;;24.10;99.90;;;;;;6244797;27;83345;-66
2022/06/07 08:40:33;;;;;;;1.30;1.20;;;24.10;99.80;;;;;;6258253;27;83829;-66
2022/06/07 08:43:35;;;;;;;1.75;1.20;;;24.10;99.90;;;;;;6240310;27;84329;-67
2022/06/07 08:46:40;;;;;;;1.65;1.40;;;24.10;99.30;;;;;;6241666;28;84430;-67
2022/06/07 08:49:42;;;;;;;1.30;1.20;;;24.10;99.30;;;;;;6242048;27;84092;-66
2022/06/07 08:52:45;;;;;;;4.35;1.40;;;24.10;99.80;;;;;;6254112;27;84051;-66
2022/06/07 08:55:49;;;;;;;1.20;1.10;;;24.10;99.90;;;;;;6238727;27;84139;-66
2022/06/07 08:58:53;;;;;;;2.40;1.30;;;24.10;99.90;;;;;;6243561;27;84373;-67
2022/06/07 09:02:04;;;;;;;2.30;1.20;;;24.10;99.90;;;;;;6248854;27;83299;-67
2022/06/07 09:05:10;;;;;;;1.50;0.95;;;24.20;99.90;;;;;;6247559;27;84001;-67
2022/06/07 09:08:14;;;;;;;2.00;1.20;;;24.20;99.90;;;;;;6245431;27;86282;-66
2022/06/07 09:14:44;;;;;;;2.22;1.30;;;24.20;99.90;;;;;;6244708;27;82815;-66
2022/06/07 09:17:51;;;;;;;1.38;1.10;;;24.20;99.90;;;;;;6241410;27;84204;-66
2022/06/07 09:20:58;;;;;;;2.03;1.10;;;24.20;99.90;;;;;;6236751;27;84033;-67
2022/06/07 09:24:00;;;;;;;1.67;1.30;;;24.20;99.90;;;;;;6261490;27;84080;-66
2022/06/07 09:27:16;;;;;;;1.40;1.00;;;24.30;99.90;;;;;;6243602;27;84144;-66
2022/06/07 09:30:25;;;;;;;1.50;1.00;;;24.30;99.90;;;;;;6256663;27;84053;-67
2022/06/07 09:33:33;;;;;;;1.13;0.90;;;24.30;99.90;;;;;;6246109;27;83665;-66
2022/06/07 09:36:38;;;;;;;1.38;1.10;;;24.20;99.90;;;;;;6258552;27;84012;-66
2022/06/07 09:39:43;;;;;;;1.73;1.10;;;24.30;99.90;;;;;;6242833;27;84373;-67
2022/06/07 09:42:54;;;;;;;1.30;1.00;;;24.30;99.90;;;;;;6245333;27;84982;-66
2022/06/07 09:46:00;;;;;;;1.83;1.08;;;24.30;99.90;;;;;;6248377;27;84131;-66
2022/06/07 09:49:05;;;;;;;1.58;1.25;;;24.30;99.90;;;;;;6249179;27;82930;-65
2022/06/07 09:52:14;;;;;;;1.20;1.10;;;24.30;99.80;;;;;;6244329;27;83940;-66
2022/06/07 09:55:23;;;;;;;1.20;1.10;;;24.30;99.70;;;;;;6246600;27;82886;-67
2022/06/07 09:58:43;;;;;;;2.92;1.10;;;24.30;99.60;;;;;;6269122;27;84110;-66
2022/06/07 10:01:52;;;;;;;0.90;0.90;;;24.30;99.70;;;;;;6241218;27;84380;-65
2022/06/07 10:05:00;;;;;;;1.35;1.10;;;24.30;99.70;;;;;;6256216;27;82237;-66
2022/06/07 10:08:13;;;;;;;1.20;1.10;;;24.30;99.80;;;;;;6244047;27;84069;-66
2022/06/07 10:11:20;;;;;;;1.60;1.20;;;24.30;99.80;;;;;;6245754;27;84402;-66
2022/06/07 10:14:30;;;;;;;1.58;1.10;;;24.30;99.90;;;;;;6242220;27;85007;-66
2022/06/07 10:17:55;;;;;;;1.92;1.20;;;24.30;99.90;;;;;;6237028;27;84108;-65
2022/06/07 10:21:20;;;;;;;1.10;1.00;;;24.30;99.90;;;;;;6248316;27;84158;-66
2022/06/07 10:24:37;;;;;;;1.10;1.00;;;24.30;99.90;;;;;;6247562;27;82862;-65
2022/06/07 10:27:51;;;;;;;1.30;1.00;;;24.30;99.90;;;;;;6251559;27;84053;-65
2022/06/07 10:31:03;;;;;;;1.27;1.10;;;24.30;99.90;;;;;;6237664;27;84253;-66
2022/06/07 10:34:09;;;;;;;1.20;1.10;;;24.30;99.90;;;;;;6241280;27;82960;-66
2022/06/07 10:37:22;;;;;;;1.33;1.23;;;24.30;99.90;;;;;;6255650;27;83425;-66
2022/06/07 10:40:35;;;;;;;1.70;1.25;;;24.30;99.90;;;;;;6234423;27;84110;-66
2022/06/07 10:43:51;;;;;;;1.20;1.10;;;24.30;99.90;;;;;;6243428;27;82963;-66
2022/06/07 10:46:55;;;;;;;2.13;1.20;;;24.30;99.90;;;;;;6250034;27;84947;-66
2022/06/07 10:50:02;;;;;;;1.20;1.02;;;24.30;99.90;;;;;;6242645;27;83907;-66
2022/06/07 10:53:12;;;;;;;2.05;1.10;;;24.30;99.90;;;;;;6246327;27;84197;-66
2022/06/07 10:56:22;;;;;;;1.27;1.00;;;24.30;99.90;;;;;;6243439;27;83152;-67
2022/06/07 10:59:28;;;;;;;1.42;1.10;;;24.30;99.90;;;;;;6244072;28;84059;-66
2022/06/07 11:02:41;;;;;;;1.80;1.15;;;24.30;99.90;;;;;;6237483;28;84049;-67
2022/06/07 11:09:23;;;;;;;1.20;1.02;;;24.30;99.90;;;;;;6237731;28;82232;-67
2022/06/07 11:12:28;;;;;;;1.38;0.95;;;24.30;99.90;;;;;;6237345;28;83690;-67
2022/06/07 11:15:39;;;;;;;1.08;0.90;;;24.30;99.90;;;;;;6235242;27;84445;-66
2022/06/07 11:18:42;;;;;;;1.40;1.20;;;24.30;99.90;;;;;;6242723;27;85239;-67
2022/06/07 11:21:49;;;;;;;1.20;1.10;;;24.30;99.90;;;;;;6242634;27;84052;-66
2022/06/07 11:25:00;;;;;;;1.70;1.27;;;24.30;99.90;;;;;;6238952;27;82798;-66
2022/06/07 11:28:07;;;;;;;1.27;1.17;;;24.30;99.90;;;;;;6237168;28;83142;-67
2022/06/07 11:31:29;;;;;;;1.10;1.00;;;24.30;99.90;;;;;;6237732;27;83975;-67
2022/06/07 11:34:34;;;;;;;1.20;1.10;;;24.30;99.90;;;;;;6242162;27;84108;-66
2022/06/07 11:37:36;;;;;;;1.17;1.08;;;24.30;99.90;;;;;;6249873;28;84005;-66
2022/06/07 11:40:39;;;;;;;1.42;1.27;;;24.30;99.90;;;;;;6240016;28;82172;-66
2022/06/07 11:43:54;;;;;;;1.20;1.10;;;24.30;99.90;;;;;;6240198;27;83984;-66
2022/06/07 11:47:01;;;;;;;1.10;1.00;;;24.30;99.90;;;;;;6241463;27;83056;-66
2022/06/07 11:50:27;;;;;;;1.88;1.10;;;24.30;99.90;;;;;;6235773;27;84666;-66
2022/06/07 11:53:32;;;;;;;1.20;1.10;;;24.30;99.90;;;;;;6251465;27;84057;-66
2022/06/07 11:56:43;;;;;;;1.27;1.17;;;24.30;99.90;;;;;;6247237;27;84063;-66
2022/06/07 11:59:47;;;;;;;1.50;1.00;;;24.30;99.90;;;;;;6245596;27;82917;-66
2022/06/07 12:03:12;;;;;;;1.10;1.00;;;24.30;99.90;;;;;;6245669;27;84028;-66
2022/06/07 12:06:25;;;;;;;1.10;1.00;;;24.30;99.90;;;;;;6239710;27;83961;-66
2022/06/07 12:09:28;;;;;;;1.10;0.90;;;24.30;99.90;;;;;;6239344;27;83744;-66
2022/06/07 12:12:39;;;;;;;1.10;1.00;;;24.30;99.90;;;;;;6248465;27;82593;-66
2022/06/07 12:15:45;;;;;;;2.00;1.20;;;24.30;99.90;;;;;;6253877;27;84075;-66
2022/06/07 12:18:52;;;;;;;1.70;1.17;;;24.30;99.90;;;;;;6243843;27;82907;-66
2022/06/07 12:21:59;;;;;;;1.33;1.13;;;24.30;99.90;;;;;;6241476;27;84972;-66
2022/06/07 12:25:10;;;;;;;2.50;1.20;;;24.30;99.90;;;;;;6240077;27;82278;-66
2022/06/07 12:28:23;;;;;;;0.98;0.88;;;24.30;99.90;;;;;;6246042;27;84190;-65
2022/06/07 12:31:27;;;;;;;1.67;1.23;;;24.30;99.90;;;;;;6242994;27;82904;-65
2022/06/07 12:34:32;;;;;;;1.30;1.20;;;24.30;99.90;;;;;;6256042;27;82882;-65
2022/06/07 12:37:38;;;;;;;1.10;0.98;;;24.40;99.90;;;;;;6243177;27;83727;-65
2022/06/07 12:40:50;;;;;;;1.00;1.00;;;24.30;99.90;;;;;;6243258;27;83966;-64
2022/06/07 12:43:56;;;;;;;1.20;1.05;;;24.40;99.90;;;;;;6244579;27;83320;-63
2022/06/07 12:46:59;;;;;;;1.30;1.10;;;24.30;99.90;;;;;;6248057;27;84118;-64
2022/06/07 12:50:02;;;;;;;2.13;1.10;;;24.40;99.90;;;;;;6234861;27;84165;-64
2022/06/07 12:53:04;;;;;;;1.20;1.10;;;24.30;99.90;;;;;;6237706;27;84991;-64
2022/06/07 12:56:16;;;;;;;1.42;1.10;;;24.40;99.90;;;;;;6240357;27;84467;-65
2022/06/07 12:59:29;;;;;;;1.20;1.10;;;24.40;99.90;;;;;;6238703;27;84125;-66
2022/06/07 13:02:37;;;;;;;1.38;1.27;;;24.40;99.90;;;;;;6248082;27;84376;-66
2022/06/07 13:05:39;;;;;;;1.33;1.23;;;24.40;99.90;;;;;;6239770;28;84375;-66
2022/06/07 13:08:42;;;;;;;2.15;1.30;;;24.30;99.90;;;;;;6257116;27;83877;-66
2022/06/07 13:11:45;;;;;;;2.60;1.10;;;24.30;99.90;;;;;;6245717;27;84373;-66
2022/06/07 13:14:48;;;;;;;1.20;1.10;;;24.30;99.80;;;;;;6244120;27;83534;-65
2022/06/07 13:18:00;;;;;;;1.30;1.20;;;24.40;99.70;;;;;;6248711;28;84043;-65
2022/06/07 13:21:15;;;;;;;0.95;0.95;;;24.40;99.60;;;;;;6240959;28;82947;-66
2022/06/07 13:24:21;;;;;;;0.93;0.93;;;24.30;99.40;;;;;;6240672;27;84793;-66
2022/06/07 13:27:43;;;;;;;0.90;0.90;;;24.30;99.20;;;;;;6238270;28;83659;-66
2022/06/07 13:30:50;;;;;;;1.00;1.00;;;24.30;99.10;;;;;;6240776;28;84246;-65
2022/06/07 13:34:02;;;;;;;1.25;1.15;;;24.30;98.90;;;;;;6238952;27;84065;-66
2022/06/07 13:37:17;;;;;;;1.27;1.15;;;24.30;98.70;;;;;;6243186;27;84098;-65
2022/06/07 13:40:27;;;;;;;1.40;1.13;;;24.30;98.40;;;;;;6246582;27;83013;-65
2022/06/07 13:43:30;;;;;;;1.00;0.90;;;24.30;98.30;;;;;;6261619;27;83737;-65
2022/06/07 13:46:37;;;;;;;1.48;1.02;;;24.30;98.20;;;;;;6247263;27;82115;-65
2022/06/07 13:56:24;;;;;;;3.00;2.70;;;24.40;99.90;;;;;;6238941;28;83080;-65
2022/06/07 13:59:26;;;;;;;2.22;1.73;;;24.30;99.90;;;;;;6232751;27;83995;-65
2022/06/07 14:02:29;;;;;;;1.50;1.40;;;24.30;99.90;;;;;;6235759;28;84325;-65
2022/06/07 14:05:34;;;;;;;2.22;1.40;;;24.40;99.90;;;;;;6242663;27;84085;-65
2022/06/07 14:08:35;;;;;;;1.40;1.30;;;24.40;99.90;;;;;;6239661;28;84233;-65
2022/06/07 14:11:38;;;;;;;2.17;1.48;;;24.40;99.90;;;;;;6245322;27;83888;-65
2022/06/07 14:14:40;;;;;;;1.38;1.00;;;24.40;99.90;;;;;;6235845;27;84129;-66
2022/06/07 14:17:46;;;;;;;1.30;1.00;;;24.40;99.90;;;;;;6237048;27;83443;-65
2022/06/07 14:20:49;;;;;;;1.38;1.13;;;24.40;99.90;;;;;;6238823;28;83683;-66
2022/06/07 14:23:51;;;;;;;0.98;0.90;;;24.40;99.90;;;;;;6236572;28;82610;-66
2022/06/07 14:26:54;;;;;;;1.55;1.45;;;24.40;99.60;;;;;;6242396;27;85093;-66
2022/06/07 14:29:56;;;;;;;1.67;1.20;;;24.40;99.20;;;;;;6237571;27;84118;-66
2022/06/07 14:33:03;;;;;;;1.25;1.13;;;24.30;98.80;;;;;;6242834;27;84095;-66
2022/06/07 14:36:05;;;;;;;1.30;1.20;;;24.30;98.50;;;;;;6243570;27;82999;-66
2022/06/07 14:39:10;;;;;;;1.30;1.20;;;24.30;98.20;;;;;;6232666;27;83107;-66
2022/06/07 14:42:13;;;;;;;3.90;1.30;;;24.30;98.00;;;;;;6260635;27;84081;-66
2022/06/07 14:45:18;;;;;;;1.73;1.35;;;24.30;97.80;;;;;;6243821;27;84263;-66
2022/06/07 14:48:28;;;;;;;1.13;1.10;;;24.30;97.60;;;;;;6256623;27;83326;-66
2022/06/07 14:51:35;;;;;;;1.30;1.20;;;24.30;97.50;;;;;;6235070;27;84383;-66
2022/06/07 14:54:38;;;;;;;1.38;1.10;;;24.30;97.40;;;;;;6246429;27;82918;-66
2022/06/07 14:57:43;;;;;;;1.20;1.10;;;24.30;97.30;;;;;;6239005;27;85283;-66
2022/06/07 15:00:47;;;;;;;1.30;1.20;;;24.30;97.20;;;;;;6233423;27;83009;-66
2022/06/07 15:03:51;;;;;;;1.40;1.23;;;24.30;97.00;;;;;;6254525;27;84026;-66
2022/06/07 15:06:53;;;;;;;1.30;1.20;;;24.30;97.00;;;;;;6255888;27;83994;-66
2022/06/07 15:09:55;;;;;;;1.40;1.30;;;24.30;96.90;;;;;;6235993;27;84276;-66
2022/06/07 15:12:57;;;;;;;1.50;1.40;;;24.30;96.90;;;;;;6250455;27;84082;-66
2022/06/07 15:16:03;;;;;;;1.50;1.40;;;24.30;96.90;;;;;;6244623;27;84107;-66
2022/06/07 15:19:11;;;;;;;1.48;1.35;;;24.30;96.80;;;;;;6253673;27;83294;-66
2022/06/07 15:22:16;;;;;;;1.40;1.30;;;24.30;96.90;;;;;;6241703;27;83985;-66
2022/06/07 15:25:21;;;;;;;1.88;1.60;;;24.30;97.00;;;;;;6245090;27;84117;-66
2022/06/07 15:28:25;;;;;;;2.35;1.50;;;24.30;97.00;;;;;;6254369;27;84855;-66
2022/06/07 15:31:27;;;;;;;1.50;1.40;;;24.30;97.10;;;;;;6245655;27;83977;-66
2022/06/07 15:34:31;;;;;;;1.80;1.50;;;24.30;97.10;;;;;;6232960;27;84159;-66
2022/06/07 15:37:34;;;;;;;1.60;1.50;;;24.30;97.20;;;;;;6251071;27;84801;-66
2022/06/07 15:40:36;;;;;;;1.30;1.20;;;24.30;97.10;;;;;;6239486;27;84369;-66
2022/06/07 15:43:39;;;;;;;1.63;1.50;;;24.30;97.00;;;;;;6231335;27;84005;-66
2022/06/07 15:46:41;;;;;;;1.65;1.52;;;24.30;97.00;;;;;;6247482;27;83803;-66
2022/06/07 15:49:46;;;;;;;1.60;1.50;;;24.30;97.00;;;;;;6253535;27;83370;-66
2022/06/07 15:52:48;;;;;;;3.15;1.80;;;24.30;97.00;;;;;;6245862;27;82983;-66
2022/06/07 15:55:50;;;;;;;1.70;1.48;;;24.30;97.10;;;;;;6251435;27;82940;-67
2022/06/07 15:59:06;;;;;;;2.42;1.70;;;24.30;97.10;;;;;;6248117;27;84830;-67
2022/06/07 16:02:09;;;;;;;1.90;1.60;;;24.30;97.20;;;;;;6247420;27;84077;-66
2022/06/07 16:05:14;;;;;;;1.52;1.42;;;24.30;97.30;;;;;;6238459;28;83965;-67
2022/06/07 16:08:18;;;;;;;1.50;1.30;;;24.30;97.40;;;;;;6239644;28;84602;-67
2022/06/07 16:11:20;;;;;;;1.52;1.40;;;24.30;97.30;;;;;;6243482;27;84093;-67
2022/06/07 16:14:23;;;;;;;1.92;1.52;;;24.30;97.30;;;;;;6245887;28;83931;-67
2022/06/07 16:17:25;;;;;;;2.08;1.42;;;24.30;97.30;;;;;;6248518;28;83382;-66
2022/06/07 16:20:29;;;;;;;1.75;1.65;;;24.30;97.20;;;;;;6249229;27;83178;-66
2022/06/07 16:23:32;;;;;;;1.77;1.67;;;24.30;97.30;;;;;;6248064;27;84041;-67
2022/06/07 16:26:34;;;;;;;1.70;1.60;;;24.20;97.30;;;;;;6244782;28;83339;-67
2022/06/07 16:36:18;;;;;;;1.60;1.50;;;24.30;97.30;;;;;;6244281;27;82845;-66
2022/06/07 16:39:24;;;;;;;1.92;1.70;;;24.30;97.30;;;;;;6254640;27;83220;-67